createdAt,value
2023-03-05T00:00:41.319Z,19.02
2023-03-05T00:02:44.320Z,20.00
2023-03-05T00:04:47.143Z,19.20
2023-03-05T00:06:49.881Z,18.48
2023-03-05T00:08:53.557Z,21.52
2023-03-05T00:10:57.692Z,21.40
2023-03-05T00:13:01.806Z,19.73
2023-03-05T00:15:05.370Z,19.95
2023-03-05T00:17:08.197Z,21.20
2023-03-05T00:19:13.626Z,19.63
2023-03-05T00:21:20.686Z,21.52
2023-03-05T00:23:23.458Z,21.40
2023-03-05T00:25:26.224Z,22.10
2023-03-05T00:27:28.976Z,23.08
2023-03-05T00:29:33.126Z,22.85
2023-03-05T00:31:37.493Z,23.33
2023-03-05T00:33:40.320Z,23.30
2023-03-05T00:35:44.627Z,25.92
2023-03-05T00:37:47.453Z,24.10
2023-03-05T00:39:50.231Z,24.92
2023-03-05T00:41:53.236Z,23.60
2023-03-05T00:43:56.279Z,24.65
2023-03-05T00:46:00.462Z,24.80
2023-03-05T00:48:04.205Z,23.75
2023-03-05T00:50:08.621Z,25.63
2023-03-05T00:52:11.363Z,24.50
2023-03-05T00:54:14.211Z,24.02
2023-03-05T00:56:17.014Z,25.10
2023-03-05T00:58:19.829Z,25.02
2023-03-05T01:00:22.906Z,24.73
2023-03-05T01:02:27.072Z,26.25
2023-03-05T01:04:29.844Z,25.50
2023-03-05T01:06:32.844Z,24.33
2023-03-05T01:08:35.889Z,24.77
2023-03-05T01:10:38.951Z,22.58
2023-03-05T01:12:41.747Z,25.27
2023-03-05T01:14:44.496Z,25.02
2023-03-05T01:16:47.535Z,24.92
2023-03-05T01:18:51.743Z,25.45
2023-03-05T01:20:54.544Z,23.67
2023-03-05T01:22:58.928Z,23.00
2023-03-05T01:25:01.944Z,21.23
2023-03-05T01:27:04.956Z,24.08
2023-03-05T01:29:07.782Z,23.88
2023-03-05T01:31:10.890Z,23.25
2023-03-05T01:33:14.497Z,23.88
2023-03-05T01:35:22.563Z,23.73
2023-03-05T01:37:26.356Z,23.83
2023-03-05T01:39:29.317Z,24.50
2023-03-05T01:41:33.847Z,23.98
2023-03-05T01:43:37.171Z,24.00
2023-03-05T01:45:41.224Z,24.88
2023-03-05T01:47:44.763Z,23.85
2023-03-05T01:49:47.726Z,23.92
2023-03-05T01:51:59.730Z,24.27
2023-03-05T01:54:03.985Z,23.50
2023-03-05T01:56:07.409Z,24.60
2023-03-05T01:58:14.210Z,23.70
2023-03-05T02:00:19.848Z,23.40
2023-03-05T02:02:23.041Z,25.17
2023-03-05T02:04:33.344Z,23.73
2023-03-05T02:06:36.508Z,23.98
2023-03-05T02:08:40.771Z,23.20
2023-03-05T02:10:45.222Z,22.92
2023-03-05T02:12:50.056Z,22.67
2023-03-05T02:14:59.251Z,23.00
2023-03-05T02:17:02.450Z,23.73
2023-03-05T02:19:06.494Z,24.10
2023-03-05T02:21:11.209Z,24.25
2023-03-05T02:23:14.440Z,23.50
2023-03-05T02:25:20.173Z,24.17
2023-03-05T02:27:34.685Z,22.88
2023-03-05T02:29:41.849Z,23.40
2023-03-05T02:31:44.799Z,23.77
2023-03-05T02:33:49.777Z,23.17
2023-03-05T02:35:54.547Z,24.92
2023-03-05T02:37:58.790Z,23.42
2023-03-05T02:40:01.945Z,23.25
2023-03-05T02:42:05.466Z,24.52
2023-03-05T02:44:08.491Z,22.83
2023-03-05T02:46:11.830Z,24.30
2023-03-05T02:48:15.261Z,22.58
2023-03-05T02:50:18.664Z,23.35
2023-03-05T02:52:23.182Z,22.83
2023-03-05T02:54:28.725Z,23.75
2023-03-05T02:56:31.781Z,22.50
2023-03-05T02:58:36.625Z,22.95
2023-03-05T03:00:39.449Z,23.50
2023-03-05T03:02:42.302Z,22.98
2023-03-05T03:04:45.377Z,22.17
2023-03-05T03:06:48.179Z,22.98
2023-03-05T03:08:50.946Z,22.45
2023-03-05T03:10:56.678Z,22.20
2023-03-05T03:12:59.383Z,23.55
2023-03-05T03:15:02.185Z,21.88
2023-03-05T03:17:05.013Z,21.98
2023-03-05T03:19:07.826Z,23.30
2023-03-05T03:21:17.155Z,22.25
2023-03-05T03:23:19.915Z,23.30
2023-03-05T03:25:24.107Z,22.38
2023-03-05T03:27:29.741Z,22.40
2023-03-05T03:29:32.592Z,21.13
2023-03-05T03:31:35.417Z,22.52
2023-03-05T03:33:38.185Z,22.95
2023-03-05T03:35:41.057Z,20.80
2023-03-05T03:37:43.867Z,23.05
2023-03-05T03:39:46.653Z,21.75
2023-03-05T03:41:53.222Z,23.75
2023-03-05T03:43:57.378Z,23.05
2023-03-05T03:46:00.180Z,25.25
2023-03-05T03:48:02.995Z,23.65
2023-03-05T03:50:06.679Z,24.13
2023-03-05T03:52:09.758Z,22.77
2023-03-05T03:54:12.593Z,29.63
2023-03-05T03:56:15.599Z,28.38
2023-03-05T03:58:18.334Z,36.38
2023-03-05T04:00:23.098Z,40.50
2023-03-05T04:02:26.317Z,26.63
2023-03-05T04:04:30.270Z,23.73
2023-03-05T04:06:33.713Z,23.42
2023-03-05T04:08:36.547Z,19.80
2023-03-05T04:10:39.772Z,22.25
2023-03-05T04:12:43.516Z,22.15
2023-03-05T04:14:46.888Z,21.67
2023-03-05T04:16:50.980Z,22.15
2023-03-05T04:18:53.820Z,21.15
2023-03-05T04:20:56.601Z,22.23
2023-03-05T04:22:59.390Z,22.55
2023-03-05T04:25:03.733Z,23.77
2023-03-05T04:27:06.934Z,21.80
2023-03-05T04:29:09.718Z,22.10
2023-03-05T04:31:12.577Z,21.45
2023-03-05T04:33:17.204Z,22.55
2023-03-05T04:35:20.155Z,21.10
2023-03-05T04:37:22.994Z,22.55
2023-03-05T04:39:25.927Z,22.42
2023-03-05T04:41:28.637Z,21.92
2023-03-05T04:43:31.468Z,21.00
2023-03-05T04:45:34.817Z,20.90
2023-03-05T04:47:38.349Z,21.60
2023-03-05T04:49:42.771Z,22.40
2023-03-05T04:51:45.544Z,20.60
2023-03-05T04:53:48.332Z,20.65
2023-03-05T04:55:53.870Z,21.60
2023-03-05T04:57:56.678Z,20.48
2023-03-05T04:59:59.768Z,19.92
2023-03-05T05:02:02.643Z,20.85
2023-03-05T05:04:05.420Z,21.35
2023-03-05T05:06:09.534Z,21.23
2023-03-05T05:08:12.313Z,21.30
2023-03-05T05:10:16.415Z,20.70
2023-03-05T05:12:19.163Z,20.13
2023-03-05T05:14:22.004Z,21.30
2023-03-05T05:16:24.730Z,21.50
2023-03-05T05:18:27.861Z,20.63
2023-03-05T05:20:30.866Z,20.35
2023-03-05T05:22:35.623Z,21.38
2023-03-05T05:24:38.309Z,19.30
2023-03-05T05:26:41.048Z,21.10
2023-03-05T05:28:44.441Z,19.90
2023-03-05T05:30:47.184Z,20.70
2023-03-05T05:32:49.883Z,20.10
2023-03-05T05:34:55.551Z,21.35
2023-03-05T05:36:58.289Z,19.77
2023-03-05T05:39:02.333Z,21.80
2023-03-05T05:41:05.869Z,23.83
2023-03-05T05:43:08.594Z,22.75
2023-03-05T05:45:12.702Z,26.75
2023-03-05T05:47:16.601Z,21.65
2023-03-05T05:49:19.348Z,19.92
2023-03-05T05:51:24.054Z,19.95
2023-03-05T05:53:27.558Z,19.50
2023-03-05T05:55:31.639Z,20.15
2023-03-05T05:57:35.258Z,18.77
2023-03-05T05:59:38.249Z,19.50
2023-03-05T06:01:40.997Z,20.48
2023-03-05T06:03:43.825Z,20.70
2023-03-05T06:05:47.592Z,20.35
2023-03-05T06:07:50.320Z,27.38
2023-03-05T06:09:53.101Z,36.65
2023-03-05T06:11:57.224Z,25.58
2023-03-05T06:14:00.114Z,20.77
2023-03-05T06:16:05.202Z,19.65
2023-03-05T06:18:08.007Z,19.88
2023-03-05T06:20:12.076Z,18.42
2023-03-05T06:22:14.854Z,19.00
2023-03-05T06:24:19.262Z,19.90
2023-03-05T06:26:23.608Z,18.73
2023-03-05T06:28:27.870Z,19.02
2023-03-05T06:30:30.644Z,20.33
2023-03-05T06:32:33.471Z,21.20
2023-03-05T06:34:36.606Z,19.52
2023-03-05T06:36:40.392Z,20.08
2023-03-05T06:38:43.203Z,21.45
2023-03-05T06:40:46.149Z,41.15
2023-03-05T06:42:49.057Z,32.25
2023-03-05T06:44:53.181Z,33.00
2023-03-05T06:46:55.960Z,40.38
2023-03-05T06:49:00.847Z,22.13
2023-03-05T06:51:03.663Z,49.67
2023-03-05T06:53:06.462Z,45.38
2023-03-05T06:55:10.456Z,53.22
2023-03-05T06:57:13.748Z,49.15
2023-03-05T06:59:17.820Z,41.55
2023-03-05T07:01:23.607Z,30.98
2023-03-05T07:03:26.462Z,23.80
2023-03-05T07:05:29.297Z,21.15
2023-03-05T07:07:32.974Z,19.42
2023-03-05T07:09:35.691Z,17.85
2023-03-05T07:11:38.438Z,17.67
2023-03-05T07:13:41.751Z,22.02
2023-03-05T07:15:44.664Z,26.85
2023-03-05T07:17:48.806Z,26.27
2023-03-05T07:19:51.550Z,24.88
2023-03-05T07:21:54.352Z,23.25
2023-03-05T07:23:58.667Z,20.83
2023-03-05T07:26:02.595Z,20.75
2023-03-05T07:28:06.409Z,22.20
2023-03-05T07:30:10.544Z,22.77
2023-03-05T07:32:13.355Z,21.90
2023-03-05T07:34:17.546Z,19.48
2023-03-05T07:36:20.762Z,19.63
2023-03-05T07:38:23.650Z,19.42
2023-03-05T07:40:26.369Z,17.05
2023-03-05T07:42:29.196Z,17.92
2023-03-05T07:44:44.780Z,20.40
2023-03-05T07:46:47.605Z,22.52
2023-03-05T07:48:50.417Z,19.00
2023-03-05T07:51:02.673Z,18.55
2023-03-05T07:53:05.581Z,20.00
2023-03-05T07:55:09.071Z,19.02
2023-03-05T07:57:13.312Z,18.80
2023-03-05T07:59:16.084Z,18.73
2023-03-05T08:01:19.089Z,18.88
2023-03-05T08:03:21.891Z,18.58
2023-03-05T08:05:24.667Z,19.08
2023-03-05T08:07:28.804Z,15.60
2023-03-05T08:09:31.739Z,17.50
2023-03-05T08:11:34.517Z,20.13
2023-03-05T08:13:37.950Z,21.48
2023-03-05T08:15:40.769Z,19.38
2023-03-05T08:17:43.517Z,18.98
2023-03-05T08:19:46.533Z,18.08
2023-03-05T08:21:49.291Z,18.42
2023-03-05T08:23:53.427Z,18.95
2023-03-05T08:25:56.226Z,20.45
2023-03-05T08:27:59.000Z,19.42
2023-03-05T08:30:02.286Z,18.55
2023-03-05T08:32:05.787Z,19.27
2023-03-05T08:34:08.616Z,17.65
2023-03-05T08:36:11.707Z,17.75
2023-03-05T08:38:14.576Z,17.50
2023-03-05T08:40:19.372Z,17.55
2023-03-05T08:42:22.070Z,17.70
2023-03-05T08:44:24.839Z,16.92
2023-03-05T08:46:27.649Z,15.23
2023-03-05T08:48:32.628Z,16.55
2023-03-05T08:50:38.865Z,16.58
2023-03-05T08:52:42.004Z,16.25
2023-03-05T08:54:44.722Z,14.93
2023-03-05T08:56:50.060Z,15.27
2023-03-05T08:58:53.052Z,15.13
2023-03-05T09:00:56.363Z,16.08
2023-03-05T09:02:59.109Z,22.15
2023-03-05T09:05:01.866Z,20.13
2023-03-05T09:07:04.648Z,16.95
2023-03-05T09:09:07.664Z,16.17
2023-03-05T09:11:13.694Z,16.10
2023-03-05T09:13:17.799Z,15.57
2023-03-05T09:15:20.674Z,16.48
2023-03-05T09:17:23.638Z,15.60
2023-03-05T09:19:27.474Z,15.88
2023-03-05T09:21:30.249Z,15.13
2023-03-05T09:23:32.993Z,15.13
2023-03-05T09:25:35.940Z,14.95
2023-03-05T09:27:39.529Z,14.30
2023-03-05T09:29:43.598Z,13.90
2023-03-05T09:31:48.566Z,12.98
2023-03-05T09:33:51.468Z,15.38
2023-03-05T09:35:54.330Z,14.32
2023-03-05T09:37:57.463Z,14.25
2023-03-05T09:40:00.263Z,13.13
2023-03-05T09:42:27.263Z,13.80
2023-03-05T09:44:38.943Z,13.30
2023-03-05T09:46:52.868Z,12.73
2023-03-05T09:49:01.805Z,13.10
2023-03-05T09:51:06.045Z,11.93
2023-03-05T09:53:26.325Z,12.45
2023-03-05T09:55:35.219Z,11.57
2023-03-05T09:57:43.911Z,12.30
2023-03-05T09:59:51.429Z,12.50
2023-03-05T10:01:58.925Z,15.27
2023-03-05T10:04:10.135Z,16.02
2023-03-05T10:06:18.285Z,12.45
2023-03-05T10:08:28.450Z,14.05
2023-03-05T10:10:40.668Z,13.73
2023-03-05T10:12:45.558Z,12.88
2023-03-05T10:14:50.286Z,12.60
2023-03-05T10:17:38.623Z,11.75
2023-03-05T10:20:18.282Z,12.35
2023-03-05T10:22:24.197Z,12.45
2023-03-05T10:24:37.874Z,11.65
2023-03-05T10:26:58.594Z,12.38
2023-03-05T10:29:19.599Z,12.70
2023-03-05T10:31:39.969Z,11.48
2023-03-05T10:33:57.316Z,12.38
2023-03-05T10:36:28.178Z,12.95
2023-03-05T10:38:52.269Z,13.25
2023-03-05T10:40:56.915Z,12.52
2023-03-05T10:43:08.315Z,12.30
2023-03-05T10:45:16.914Z,12.88
2023-03-05T10:47:26.581Z,12.32
2023-03-05T10:49:35.484Z,14.57
2023-03-05T10:51:42.258Z,13.63
2023-03-05T10:53:54.733Z,13.15
2023-03-05T10:55:57.677Z,14.30
2023-03-05T10:58:01.989Z,13.60
2023-03-05T11:00:19.793Z,13.05
2023-03-05T11:02:23.925Z,12.85
2023-03-05T11:04:29.136Z,12.60
2023-03-05T11:06:36.537Z,13.18
2023-03-05T11:08:40.133Z,11.93
2023-03-05T11:10:42.921Z,12.75
2023-03-05T11:12:46.392Z,13.15
2023-03-05T11:15:05.660Z,13.07
2023-03-05T11:17:29.410Z,12.50
2023-03-05T11:19:33.140Z,12.60
2023-03-05T11:21:40.416Z,13.43
2023-03-05T11:23:43.441Z,13.23
2023-03-05T11:25:58.932Z,12.75
2023-03-05T11:28:03.971Z,12.85
2023-03-05T11:30:21.821Z,12.52
2023-03-05T11:32:27.122Z,11.63
2023-03-05T11:34:35.468Z,12.32
2023-03-05T11:36:40.987Z,11.77
2023-03-05T11:38:51.097Z,12.25
2023-03-05T11:40:56.498Z,11.52
2023-03-05T11:43:02.786Z,11.88
2023-03-05T11:45:07.585Z,12.00
2023-03-05T11:47:21.753Z,14.95
2023-03-05T11:49:27.734Z,11.90
2023-03-05T11:51:38.226Z,11.65
2023-03-05T11:53:45.568Z,12.23
2023-03-05T11:55:52.109Z,11.52
2023-03-05T11:58:05.267Z,13.23
2023-03-05T12:00:14.148Z,10.32
2023-03-05T12:02:20.055Z,11.65
2023-03-05T12:04:23.531Z,11.65
2023-03-05T12:06:34.214Z,10.48
2023-03-05T12:08:42.034Z,10.90
2023-03-05T12:10:46.649Z,10.38
2023-03-05T12:12:58.682Z,10.77
2023-03-05T12:15:19.835Z,10.93
2023-03-05T12:17:28.320Z,10.45
2023-03-05T12:19:41.287Z,10.70
2023-03-05T12:21:45.709Z,10.35
2023-03-05T12:23:51.229Z,15.98
2023-03-05T12:25:57.859Z,15.35
2023-03-05T12:28:00.969Z,14.70
2023-03-05T12:30:05.316Z,10.77
2023-03-05T12:32:58.221Z,10.75
2023-03-05T12:35:04.287Z,10.13
2023-03-05T12:37:12.419Z,10.05
2023-03-05T12:39:43.923Z,14.32
2023-03-05T12:41:48.142Z,13.52
2023-03-05T12:44:11.009Z,11.77
2023-03-05T12:46:33.002Z,12.75
2023-03-05T12:48:44.757Z,12.15
2023-03-05T12:50:52.758Z,11.23
2023-03-05T12:52:56.425Z,11.25
2023-03-05T12:55:13.846Z,10.30
2023-03-05T12:57:20.850Z,10.38
2023-03-05T12:59:29.947Z,16.13
2023-03-05T13:01:40.802Z,11.35
2023-03-05T13:03:49.087Z,11.77
2023-03-05T13:05:53.737Z,13.15
2023-03-05T13:08:12.534Z,13.63
2023-03-05T13:10:24.833Z,17.05
2023-03-05T13:12:31.071Z,15.10
2023-03-05T13:14:37.577Z,18.15
2023-03-05T13:16:41.035Z,15.77
2023-03-05T13:18:48.154Z,15.48
2023-03-05T13:21:02.438Z,13.48
2023-03-05T13:23:14.061Z,15.68
2023-03-05T13:25:20.571Z,16.38
2023-03-05T13:27:28.830Z,13.93
2023-03-05T13:29:33.022Z,12.70
2023-03-05T13:31:37.227Z,12.13
2023-03-05T13:33:40.106Z,12.25
2023-03-05T13:35:46.523Z,12.93
2023-03-05T13:37:50.105Z,11.57
2023-03-05T13:39:56.525Z,11.68
2023-03-05T13:42:01.857Z,13.13
2023-03-05T13:44:04.666Z,11.70
2023-03-05T13:46:09.125Z,12.18
2023-03-05T13:48:20.405Z,13.48
2023-03-05T13:50:26.035Z,13.00
2023-03-05T13:52:30.781Z,13.07
2023-03-05T13:54:33.639Z,12.88
2023-03-05T13:56:36.553Z,12.02
2023-03-05T13:58:52.267Z,12.00
2023-03-05T14:01:04.022Z,12.93
2023-03-05T14:03:16.069Z,12.52
2023-03-05T14:05:19.940Z,12.90
2023-03-05T14:07:30.803Z,13.00
2023-03-05T14:09:47.220Z,12.07
2023-03-05T14:11:58.696Z,12.25
2023-03-05T14:14:09.093Z,12.15
2023-03-05T14:16:14.907Z,12.57
2023-03-05T14:18:21.157Z,11.68
2023-03-05T14:20:27.424Z,12.90
2023-03-05T14:22:32.815Z,12.80
2023-03-05T14:24:35.567Z,12.77
2023-03-05T14:26:41.769Z,13.45
2023-03-05T14:28:44.678Z,12.90
2023-03-05T14:30:48.160Z,13.80
2023-03-05T14:32:53.281Z,13.30
2023-03-05T14:34:59.482Z,13.52
2023-03-05T14:37:05.308Z,12.63
2023-03-05T14:39:08.594Z,14.23
2023-03-05T14:41:23.593Z,15.40
2023-03-05T14:43:26.369Z,17.60
2023-03-05T14:45:30.591Z,17.25
2023-03-05T14:47:33.409Z,16.55
2023-03-05T14:49:36.168Z,15.18
2023-03-05T14:51:43.479Z,16.00
2023-03-05T14:53:48.652Z,12.82
2023-03-05T14:55:56.687Z,13.48
2023-03-05T14:58:05.217Z,17.00
2023-03-05T15:00:16.093Z,16.70
2023-03-05T15:02:20.859Z,14.43
2023-03-05T15:04:23.695Z,14.18
2023-03-05T15:06:33.200Z,14.68
2023-03-05T15:08:37.358Z,13.52
2023-03-05T15:10:40.145Z,13.55
2023-03-05T15:12:44.174Z,11.98
2023-03-05T15:14:46.935Z,11.32
2023-03-05T15:16:49.713Z,12.60
2023-03-05T15:18:52.481Z,11.88
2023-03-05T15:20:56.886Z,11.88
2023-03-05T15:22:59.817Z,16.73
2023-03-05T15:25:04.546Z,12.88
2023-03-05T15:27:07.791Z,6.22
2023-03-05T15:29:10.532Z,7.20
2023-03-05T15:31:13.362Z,6.47
2023-03-05T15:33:17.690Z,5.88
2023-03-05T15:35:20.736Z,6.55
2023-03-05T15:37:23.732Z,5.93
2023-03-05T15:39:26.615Z,6.30
2023-03-05T15:41:30.916Z,6.43
2023-03-05T15:43:33.677Z,12.27
2023-03-05T15:45:36.475Z,14.45
2023-03-05T15:47:39.235Z,8.90
2023-03-05T15:49:41.950Z,12.32
2023-03-05T15:51:45.896Z,13.82
2023-03-05T15:53:48.698Z,13.48
2023-03-05T15:55:51.540Z,12.65
2023-03-05T15:57:55.644Z,12.93
2023-03-05T15:59:58.388Z,12.93
2023-03-05T16:02:01.737Z,10.30
2023-03-05T16:04:04.611Z,7.90
2023-03-05T16:06:08.369Z,6.15
2023-03-05T16:08:11.189Z,7.22
2023-03-05T16:10:17.628Z,6.97
2023-03-05T16:12:25.212Z,6.88
2023-03-05T16:14:30.134Z,7.38
2023-03-05T16:16:35.067Z,7.15
2023-03-05T16:18:42.831Z,7.72
2023-03-05T16:20:46.172Z,8.02
2023-03-05T16:22:49.377Z,7.32
2023-03-05T16:24:52.084Z,7.68
2023-03-05T16:26:55.137Z,7.05
2023-03-05T16:28:57.887Z,8.25
2023-03-05T16:31:02.055Z,8.50
2023-03-05T16:33:05.114Z,8.02
2023-03-05T16:35:08.629Z,7.78
2023-03-05T16:37:11.852Z,8.43
2023-03-05T16:39:14.736Z,7.25
2023-03-05T16:41:18.761Z,7.72
2023-03-05T16:43:21.500Z,7.97
2023-03-05T16:45:24.239Z,8.25
2023-03-05T16:47:28.651Z,9.50
2023-03-05T16:49:32.708Z,8.98
2023-03-05T16:51:35.891Z,8.02
2023-03-05T16:53:39.433Z,8.15
2023-03-05T16:55:42.169Z,7.07
2023-03-05T16:57:44.934Z,7.78
2023-03-05T16:59:47.626Z,7.80
2023-03-05T17:01:50.440Z,7.63
2023-03-05T17:03:54.570Z,8.15
2023-03-05T17:05:57.302Z,7.63
2023-03-05T17:08:02.130Z,7.28
2023-03-05T17:10:05.358Z,7.72
2023-03-05T17:12:08.632Z,7.43
2023-03-05T17:14:11.390Z,7.90
2023-03-05T17:16:16.236Z,8.50
2023-03-05T17:18:21.295Z,6.97
2023-03-05T17:20:25.415Z,6.85
2023-03-05T17:22:28.326Z,6.82
2023-03-05T17:24:32.914Z,9.35
2023-03-05T17:26:36.567Z,10.20
2023-03-05T17:28:39.646Z,9.80
2023-03-05T17:30:42.387Z,8.45
2023-03-05T17:32:45.166Z,8.65
2023-03-05T17:34:47.942Z,7.70
2023-03-05T17:36:51.984Z,11.05
2023-03-05T17:38:55.048Z,10.85
2023-03-05T17:40:57.972Z,10.07
2023-03-05T17:43:00.995Z,10.60
2023-03-05T17:45:04.754Z,10.98
2023-03-05T17:47:07.498Z,10.60
2023-03-05T17:49:10.200Z,8.77
2023-03-05T17:51:16.595Z,8.32
2023-03-05T17:53:20.748Z,8.00
2023-03-05T17:55:24.864Z,7.90
2023-03-05T17:57:27.759Z,8.10
2023-03-05T17:59:30.545Z,7.95
2023-03-05T18:01:35.445Z,8.82
2023-03-05T18:03:38.739Z,7.68
2023-03-05T18:05:41.964Z,8.55
2023-03-05T18:07:44.868Z,7.28
2023-03-05T18:09:48.979Z,8.02
2023-03-05T18:11:51.758Z,9.27
2023-03-05T18:13:54.531Z,8.68
2023-03-05T18:15:59.850Z,8.73
2023-03-05T18:18:03.038Z,9.43
2023-03-05T18:20:07.288Z,8.93
2023-03-05T18:22:10.131Z,9.25
2023-03-05T18:24:12.962Z,8.43
2023-03-05T18:26:17.096Z,8.30
2023-03-05T18:28:19.882Z,8.73
2023-03-05T18:30:22.687Z,8.07
2023-03-05T18:32:25.658Z,8.05
2023-03-05T18:34:29.534Z,8.40
2023-03-05T18:36:32.331Z,7.47
2023-03-05T18:38:35.553Z,8.23
2023-03-05T18:40:40.592Z,8.00
2023-03-05T18:42:44.704Z,8.13
2023-03-05T18:44:47.499Z,8.00
2023-03-05T18:46:50.276Z,8.57
2023-03-05T18:48:53.102Z,7.60
2023-03-05T18:50:55.912Z,7.50
2023-03-05T18:52:58.753Z,8.05
2023-03-05T18:55:02.071Z,8.07
2023-03-05T18:57:04.982Z,7.38
2023-03-05T18:59:09.102Z,7.78
2023-03-05T19:01:11.933Z,8.82
2023-03-05T19:03:15.218Z,7.95
2023-03-05T19:05:18.900Z,8.55
2023-03-05T19:07:21.694Z,8.25
2023-03-05T19:09:42.004Z,6.97
2023-03-05T19:11:44.890Z,7.18
2023-03-05T19:13:50.272Z,6.80
2023-03-05T19:15:54.510Z,6.95
2023-03-05T19:17:57.332Z,7.07
2023-03-05T19:20:00.513Z,7.10
2023-03-05T19:22:03.340Z,7.55
2023-03-05T19:24:06.817Z,7.53
2023-03-05T19:26:09.629Z,7.78
2023-03-05T19:28:12.338Z,7.55
2023-03-05T19:30:16.269Z,7.78
2023-03-05T19:32:21.793Z,7.82
2023-03-05T19:34:24.611Z,7.75
2023-03-05T19:36:27.366Z,8.65
2023-03-05T19:38:30.076Z,8.00
2023-03-05T19:40:32.830Z,7.85
2023-03-05T19:42:38.015Z,7.85
2023-03-05T19:44:40.833Z,8.07
2023-03-05T19:46:43.757Z,8.80
2023-03-05T19:48:47.864Z,9.02
2023-03-05T19:50:50.603Z,9.27
2023-03-05T19:52:53.382Z,9.27
2023-03-05T19:54:56.370Z,10.85
2023-03-05T19:57:00.006Z,8.45
2023-03-05T19:59:02.797Z,8.27
2023-03-05T20:01:10.133Z,7.55
2023-03-05T20:03:13.299Z,7.75
2023-03-05T20:05:17.378Z,7.32
2023-03-05T20:07:20.125Z,11.32
2023-03-05T20:09:23.073Z,10.55
2023-03-05T20:11:27.037Z,7.32
2023-03-05T20:13:31.385Z,7.32
2023-03-05T20:15:34.102Z,7.40
2023-03-05T20:17:36.826Z,8.25
2023-03-05T20:19:39.609Z,13.43
2023-03-05T20:21:44.576Z,12.02
2023-03-05T20:23:47.608Z,7.57
2023-03-05T20:25:50.306Z,7.30
2023-03-05T20:27:53.484Z,6.90
2023-03-05T20:29:56.204Z,7.00
2023-03-05T20:31:59.042Z,6.03
2023-03-05T20:34:01.804Z,6.22
2023-03-05T20:36:04.756Z,6.63
2023-03-05T20:38:20.684Z,6.32
2023-03-05T20:40:23.548Z,6.20
2023-03-05T20:42:26.351Z,5.85
2023-03-05T20:44:29.054Z,6.43
2023-03-05T20:46:33.978Z,6.00
2023-03-05T20:48:36.834Z,6.05
2023-03-05T20:50:40.960Z,6.47
2023-03-05T20:52:43.737Z,6.95
2023-03-05T20:54:48.170Z,6.43
2023-03-05T20:56:50.927Z,5.90
2023-03-05T20:58:53.639Z,7.13
2023-03-05T21:00:56.512Z,8.80
2023-03-05T21:02:59.489Z,10.05
2023-03-05T21:05:02.244Z,13.75
2023-03-05T21:07:05.097Z,15.65
2023-03-05T21:09:07.807Z,17.80
2023-03-05T21:11:12.445Z,17.27
2023-03-05T21:13:15.241Z,13.85
2023-03-05T21:15:19.915Z,10.45
2023-03-05T21:17:22.678Z,9.82
2023-03-05T21:19:25.420Z,9.25
2023-03-05T21:21:28.532Z,9.30
2023-03-05T21:23:31.270Z,8.40
2023-03-05T21:25:34.591Z,8.73
2023-03-05T21:27:38.736Z,7.97
2023-03-05T21:29:41.586Z,7.20
2023-03-05T21:31:44.415Z,8.55
2023-03-05T21:33:47.414Z,8.25
2023-03-05T21:35:52.562Z,8.90
2023-03-05T21:37:55.331Z,7.43
2023-03-05T21:39:58.073Z,8.43
2023-03-05T21:42:00.800Z,7.18
2023-03-05T21:44:05.959Z,8.70
2023-03-05T21:46:09.374Z,8.32
2023-03-05T21:48:12.147Z,8.32
2023-03-05T21:50:16.900Z,8.55
2023-03-05T21:52:19.959Z,8.18
2023-03-05T21:54:24.749Z,8.18
2023-03-05T21:56:30.941Z,7.28
2023-03-05T21:58:35.341Z,8.00
2023-03-05T22:00:39.540Z,7.53
2023-03-05T22:02:42.811Z,8.15
2023-03-05T22:04:45.965Z,7.15
2023-03-05T22:06:48.759Z,7.90
2023-03-05T22:08:51.484Z,7.05
2023-03-05T22:10:54.408Z,6.80
2023-03-05T22:13:06.887Z,6.85
2023-03-05T22:15:10.891Z,9.02
2023-03-05T22:17:15.017Z,8.68
2023-03-05T22:19:17.797Z,9.10
2023-03-05T22:21:23.293Z,7.55
2023-03-05T22:23:29.209Z,6.70
2023-03-05T22:25:31.999Z,8.05
2023-03-05T22:27:34.793Z,7.35
2023-03-05T22:29:37.567Z,7.50
2023-03-05T22:31:40.797Z,7.93
2023-03-05T22:33:44.929Z,7.72
2023-03-05T22:35:47.812Z,7.70
2023-03-05T22:37:50.640Z,7.35
2023-03-05T22:39:55.148Z,7.82
2023-03-05T22:41:57.925Z,7.88
2023-03-05T22:44:00.715Z,7.35
2023-03-05T22:46:10.538Z,7.85
2023-03-05T22:48:13.847Z,7.95
2023-03-05T22:50:18.267Z,8.43
2023-03-05T22:52:21.325Z,10.45
2023-03-05T22:54:24.045Z,9.45
2023-03-05T22:56:26.841Z,9.23
2023-03-05T22:58:29.582Z,8.52
2023-03-05T23:00:32.362Z,9.23
2023-03-05T23:02:35.290Z,8.85
2023-03-05T23:04:48.925Z,8.82
2023-03-05T23:06:53.149Z,8.43
2023-03-05T23:08:56.189Z,7.88
2023-03-05T23:10:59.023Z,8.55
2023-03-05T23:13:02.303Z,9.07
2023-03-05T23:15:07.395Z,7.93
2023-03-05T23:17:10.138Z,7.43
2023-03-05T23:19:12.869Z,7.18
2023-03-05T23:21:15.571Z,8.13
2023-03-05T23:23:19.654Z,8.18
2023-03-05T23:25:25.366Z,7.93
2023-03-05T23:27:28.170Z,8.55
2023-03-05T23:29:37.014Z,7.95
2023-03-05T23:31:39.930Z,7.80
2023-03-05T23:33:42.688Z,7.15
2023-03-05T23:35:51.329Z,7.15
2023-03-05T23:37:55.087Z,7.35
2023-03-05T23:39:59.161Z,7.88
2023-03-05T23:42:01.909Z,7.55
2023-03-05T23:44:05.692Z,7.82
2023-03-05T23:46:11.869Z,7.40
2023-03-05T23:48:15.350Z,7.90
2023-03-05T23:50:20.832Z,7.70
2023-03-05T23:52:23.617Z,7.90
2023-03-05T23:54:26.347Z,8.07
2023-03-05T23:56:31.435Z,8.27
2023-03-05T23:58:36.101Z,8.35
